Terminal Aerodrome Forecast
Issued by NWS Dodge City, KS

Home | Current Version | Previous Version | Graphics & Text | Print | Product List | Glossary Off
Versions: 1 2 3 4 5 6 7 8 9 10 11 12 13 14 15 16 17 18 19 20 21 22 23 24 25 26 27

000
FTUS43 KDDC 212342
TAFDDC
TAF
KDDC 212342Z 2200/2224 05014G25KT P6SM SKC
     FM220200 08012KT P6SM BKN070
     FM220800 08011KT P6SM OVC025
     FM221800 13011KT P6SM BKN020
     FM222100 14012KT P6SM BKN035=

USA.gov is the U.S. government's official web portal to all federal, state and local government web resources and services.